Time;durP1;ratioP1;P1;durP2;ratioP2;P2;SDS_P1;SDS_P2;PMS_P1;PMS_P2;Temp;Humidity;BMP_temperature;BMP_pressure;BME280_temperature;BME280_humidity;BME280_pressure;Samples;Min_cycle;Max_cycle;Signal;HPM_P1;HPM_P2
2023/08/13 00:02:25;;;;;;;4.90;2.80;;;;;;;16.56;100.00;100673.27;109336;1251;60188;-69
2023/08/13 00:04:53;;;;;;;4.40;2.50;;;;;;;16.50;100.00;100677.29;109273;1251;73122;-65
2023/08/13 00:07:21;;;;;;;4.00;2.80;;;;;;;16.45;100.00;100679.29;109333;1251;67048;-69
2023/08/13 00:09:49;;;;;;;3.90;2.60;;;;;;;16.42;100.00;100680.23;109335;1251;71394;-65
2023/08/13 00:12:16;;;;;;;3.90;2.50;;;;;;;16.41;100.00;100677.25;109285;1251;61779;-69
2023/08/13 00:14:44;;;;;;;4.40;2.60;;;;;;;16.36;100.00;100679.39;109333;1256;58669;-65
2023/08/13 00:17:11;;;;;;;5.80;2.70;;;;;;;16.26;100.00;100684.13;109471;1251;73129;-64
2023/08/13 00:19:39;;;;;;;4.70;2.50;;;;;;;16.21;100.00;100686.46;109346;1251;67043;-69
2023/08/13 00:22:07;;;;;;;7.00;3.00;;;;;;;16.17;100.00;100686.06;109240;1251;72694;-69
2023/08/13 00:24:35;;;;;;;3.50;2.60;;;;;;;16.14;100.00;100684.30;109301;1251;61713;-65
2023/08/13 00:27:03;;;;;;;5.50;2.50;;;;;;;16.12;100.00;100690.50;109384;1251;60180;-65
2023/08/13 00:29:33;;;;;;;5.50;2.90;;;;;;;16.11;100.00;100694.52;109351;1251;73156;-65
2023/08/13 00:32:01;;;;;;;6.20;3.00;;;;;;;16.10;100.00;100695.77;109321;1251;67617;-69
2023/08/13 00:34:28;;;;;;;5.90;3.10;;;;;;;16.07;100.00;100695.38;109239;1251;71955;-65
2023/08/13 00:36:56;;;;;;;6.50;3.00;;;;;;;16.06;100.00;100699.74;109355;1251;58657;-64
2023/08/13 00:39:23;;;;;;;7.10;2.80;;;;;;;16.03;100.00;100701.22;109294;1251;60030;-66
2023/08/13 00:41:53;;;;;;;4.70;2.60;;;;;;;15.98;100.00;100701.20;109266;1257;72536;-64
2023/08/13 00:44:20;;;;;;;4.60;2.80;;;;;;;15.93;100.00;100702.95;109284;1251;64949;-64
2023/08/13 00:46:48;;;;;;;8.80;2.80;;;;;;;15.91;100.00;100706.59;109339;1251;72710;-64
2023/08/13 00:49:16;;;;;;;4.10;2.50;;;;;;;15.88;100.00;100707.86;109253;1251;60440;-64
2023/08/13 00:51:43;;;;;;;5.70;3.00;;;;;;;15.85;100.00;100708.55;109176;1251;60445;-69
2023/08/13 00:54:11;;;;;;;7.00;3.20;;;;;;;15.83;100.00;100711.14;109286;1251;71456;-65
2023/08/13 00:56:40;;;;;;;4.90;3.00;;;;;;;15.81;100.00;100712.00;109088;1251;66856;-64
2023/08/13 00:59:07;;;;;;;4.40;3.20;;;;;;;15.79;100.00;100706.21;109296;1251;72676;-64
2023/08/13 01:01:35;;;;;;;4.60;3.10;;;;;;;15.74;100.00;100707.37;109024;1251;61736;-64
2023/08/13 01:04:04;;;;;;;6.80;3.40;;;;;;;15.71;100.00;100712.46;109287;1251;59893;-70
2023/08/13 01:06:43;;;;;;;5.10;3.10;;;;;;;15.68;100.00;100713.64;109348;1251;73515;-66
2023/08/13 01:09:34;;;;;;;4.90;2.90;;;;;;;15.66;100.00;100716.39;109339;1251;65646;-65
2023/08/13 01:12:05;;;;;;;4.40;2.80;;;;;;;15.64;100.00;100715.56;109238;1254;73163;-66
2023/08/13 01:14:42;;;;;;;6.00;3.20;;;;;;;15.61;100.00;100718.20;109245;1251;60486;-64
2023/08/13 01:17:09;;;;;;;7.60;3.40;;;;;;;15.57;100.00;100723.50;109276;1252;58821;-65
2023/08/13 01:19:37;;;;;;;4.30;3.10;;;;;;;15.55;100.00;100721.59;109254;1251;74664;-66
2023/08/13 01:22:05;;;;;;;5.50;2.90;;;;;;;15.51;100.00;100724.84;109343;1251;66240;-66
2023/08/13 01:24:32;;;;;;;5.10;3.30;;;;;;;15.47;100.00;100725.65;109336;1251;72830;-64
2023/08/13 01:27:09;;;;;;;5.10;3.00;;;;;;;15.46;100.00;100728.65;109340;1251;60244;-64
2023/08/13 01:30:03;;;;;;;5.60;3.40;;;;;;;15.46;100.00;100732.20;109173;1251;58809;-69
2023/08/13 01:32:33;;;;;;;5.30;3.20;;;;;;;15.45;100.00;100735.59;108964;1251;73135;-65
2023/08/13 01:35:01;;;;;;;7.60;3.90;;;;;;;15.47;100.00;100736.25;109259;1251;65729;-66
2023/08/13 01:37:29;;;;;;;5.80;3.30;;;;;;;15.47;100.00;100741.41;109276;1251;73654;-64
2023/08/13 01:39:56;;;;;;;7.80;3.70;;;;;;;15.49;100.00;100741.17;109325;1251;61696;-65
2023/08/13 01:42:24;;;;;;;7.80;3.40;;;;;;;15.50;100.00;100743.85;109284;1251;60048;-65
2023/08/13 01:44:53;;;;;;;4.50;3.40;;;;;;;15.49;100.00;100741.89;109264;1251;73971;-64
2023/08/13 01:47:20;;;;;;;6.80;3.90;;;;;;;15.47;100.00;100744.25;109292;1251;67256;-65
2023/08/13 01:49:49;;;;;;;8.80;4.70;;;;;;;15.47;100.00;100747.08;109274;1251;72679;-66
2023/08/13 01:52:16;;;;;;;7.90;5.50;;;;;;;15.48;100.00;100744.32;109346;1254;58837;-65
2023/08/13 01:54:44;;;;;;;8.60;5.40;;;;;;;15.47;100.00;100748.98;109289;1251;58837;-65
2023/08/13 01:57:12;;;;;;;7.00;4.60;;;;;;;15.47;100.00;100757.95;109209;1251;74197;-68
2023/08/13 01:59:40;;;;;;;8.10;4.00;;;;;;;15.45;100.00;100757.38;109360;1251;66879;-66
2023/08/13 02:02:07;;;;;;;8.80;3.90;;;;;;;15.41;100.00;100758.19;109344;1251;71132;-66
2023/08/13 02:04:36;;;;;;;8.20;3.90;;;;;;;15.37;100.00;100760.65;109265;1251;61770;-64
2023/08/13 02:07:04;;;;;;;6.90;3.70;;;;;;;15.34;100.00;100765.25;109295;1251;58842;-66
2023/08/13 02:09:32;;;;;;;5.90;4.40;;;;;;;15.29;100.00;100763.36;109189;1254;74601;-65
2023/08/13 02:12:00;;;;;;;7.80;4.00;;;;;;;15.27;100.00;100765.30;109334;1251;67255;-66
2023/08/13 02:14:28;;;;;;;7.40;4.50;;;;;;;15.28;100.00;100768.14;109321;1251;71846;-64
2023/08/13 02:16:55;;;;;;;6.30;4.20;;;;;;;15.29;100.00;100768.13;109182;1251;61752;-67
2023/08/13 02:19:23;;;;;;;8.30;4.50;;;;;;;15.30;100.00;100770.14;109248;1251;59244;-64
2023/08/13 02:21:51;;;;;;;9.90;4.20;;;;;;;15.30;100.00;100773.13;109366;1251;73829;-64
2023/08/13 02:24:19;;;;;;;6.70;3.30;;;;;;;15.30;100.00;100771.48;109330;1251;67624;-65
2023/08/13 02:26:46;;;;;;;5.30;3.90;;;;;;;15.29;100.00;100774.43;109287;1252;71322;-66
2023/08/13 02:29:14;;;;;;;6.60;3.90;;;;;;;15.31;100.00;100776.29;109239;1251;60559;-65
2023/08/13 02:31:41;;;;;;;7.60;4.20;;;;;;;15.33;100.00;100775.36;109326;1251;58515;-65
2023/08/13 02:34:10;;;;;;;5.80;3.90;;;;;;;15.38;100.00;100779.52;109311;1251;72636;-64
2023/08/13 02:36:38;;;;;;;6.50;4.00;;;;;;;15.41;100.00;100779.00;109327;1251;66922;-66
2023/08/13 02:39:06;;;;;;;6.70;4.00;;;;;;;15.46;100.00;100782.39;109231;1254;71433;-67
2023/08/13 02:41:33;;;;;;;6.20;3.90;;;;;;;15.52;100.00;100786.35;109354;1251;61427;-64
2023/08/13 02:44:01;;;;;;;7.80;4.60;;;;;;;15.58;100.00;100786.80;109274;1251;58672;-65
2023/08/13 02:46:29;;;;;;;7.70;5.10;;;;;;;15.66;100.00;100789.91;109343;1251;73958;-64
2023/08/13 02:48:56;;;;;;;11.40;3.90;;;;;;;15.73;100.00;100791.23;109223;1251;65698;-69
2023/08/13 02:51:25;;;;;;;8.80;4.00;;;;;;;15.80;100.00;100792.23;109262;1251;73067;-65
2023/08/13 02:53:53;;;;;;;5.30;3.60;;;;;;;15.88;100.00;100797.41;109331;1253;61679;-64
2023/08/13 02:56:21;;;;;;;5.00;3.40;;;;;;;15.96;100.00;100796.41;109326;1251;60115;-65
2023/08/13 02:58:48;;;;;;;8.20;5.10;;;;;;;16.08;100.00;100800.12;109204;1251;72605;-68
2023/08/13 03:01:16;;;;;;;7.40;4.60;;;;;;;16.21;100.00;100802.03;109281;1251;65674;-66
2023/08/13 03:03:44;;;;;;;6.40;4.70;;;;;;;16.35;100.00;100799.35;109225;1251;72745;-65
2023/08/13 03:06:20;;;;;;;6.60;4.70;;;;;;;16.47;100.00;100807.46;109338;1251;61854;-64
2023/08/13 03:08:48;;;;;;;6.90;4.20;;;;;;;16.62;100.00;100807.50;109182;1251;58772;-69
2023/08/13 03:11:16;;;;;;;5.70;4.60;;;;;;;16.80;100.00;100812.33;109372;1251;74402;-65
2023/08/13 03:13:44;;;;;;;9.10;3.60;;;;;;;16.90;100.00;100813.33;109296;1251;66198;-64
2023/08/13 03:16:11;;;;;;;5.80;3.70;;;;;;;16.96;100.00;100811.71;109220;1253;71384;-65
2023/08/13 03:18:40;;;;;;;4.90;3.60;;;;;;;17.03;100.00;100815.16;109206;1251;60619;-68
2023/08/13 03:21:10;;;;;;;7.80;4.70;;;;;;;17.10;100.00;100818.08;109221;1251;59466;-66
2023/08/13 03:23:37;;;;;;;7.50;4.20;;;;;;;17.24;100.00;100816.61;109243;1251;73919;-64
2023/08/13 03:26:05;;;;;;;7.10;3.70;;;;;;;17.47;100.00;100816.15;109254;1251;66950;-64
2023/08/13 03:28:33;;;;;;;5.40;4.10;;;;;;;17.72;100.00;100815.11;109268;1251;71601;-69
2023/08/13 03:31:07;;;;;;;5.30;4.00;;;;;;;18.00;100.00;100811.50;109163;1251;62373;-66
2023/08/13 03:34:13;;;;;;;6.50;4.10;;;;;;;18.68;100.00;100806.89;109122;1251;58809;-65
2023/08/13 03:36:41;;;;;;;9.50;3.70;;;;;;;19.64;100.00;100811.86;109176;1251;73519;-65
2023/08/13 03:39:09;;;;;;;5.50;3.60;;;;;;;20.99;100.00;100815.34;109329;1251;67363;-64
2023/08/13 03:41:36;;;;;;;5.70;4.40;;;;;;;22.49;100.00;100814.80;109332;1251;72942;-64
2023/08/13 03:44:05;;;;;;;6.90;4.50;;;;;;;23.88;100.00;100809.76;109252;1251;61761;-67
2023/08/13 03:46:32;;;;;;;6.70;4.20;;;;;;;25.15;100.00;100794.46;109239;1251;58842;-67
2023/08/13 03:49:00;;;;;;;7.00;4.00;;;;;;;26.29;100.00;100757.25;109305;1251;72547;-64
2023/08/13 03:51:28;;;;;;;5.10;4.50;;;;;;;27.43;100.00;100719.58;109318;1251;65951;-63
2023/08/13 03:53:55;;;;;;;6.00;5.00;;;;;;;28.49;100.00;100694.62;109251;1251;71440;-68
2023/08/13 03:56:24;;;;;;;4.70;4.20;;;;;;;29.34;100.00;100685.95;109321;1251;60094;-64
2023/08/13 03:58:52;;;;;;;4.60;3.90;;;;;;;29.98;100.00;100684.70;109186;1251;60084;-64
2023/08/13 04:01:20;;;;;;;5.60;3.40;;;;;;;30.63;100.00;100681.42;109279;1251;72053;-64
2023/08/13 04:03:48;;;;;;;3.90;3.20;;;;;;;31.31;100.00;100685.63;109239;1251;65791;-64
2023/08/13 04:06:16;;;;;;;5.90;3.80;;;;;;;31.90;100.00;100686.40;109269;1251;63835;-67
2023/08/13 04:08:44;;;;;;;4.40;3.40;;;;;;;32.51;100.00;100683.66;109197;1253;58644;-65
2023/08/13 04:11:11;;;;;;;4.60;3.90;;;;;;;33.00;94.74;100685.33;109230;1254;58062;-64
2023/08/13 04:13:39;;;;;;;4.50;3.70;;;;;;;33.33;82.72;100686.98;109243;1250;65099;-65
2023/08/13 04:16:06;;;;;;;4.50;3.50;;;;;;;33.65;76.26;100687.23;109217;1251;58532;-65
2023/08/13 04:18:35;;;;;;;5.10;3.90;;;;;;;34.00;72.54;100684.52;109266;1251;63813;-67
2023/08/13 04:21:02;;;;;;;4.50;3.40;;;;;;;34.42;65.66;100682.98;109182;1251;58402;-64
2023/08/13 04:23:30;;;;;;;4.30;3.90;;;;;;;34.87;60.76;100680.58;109262;1251;58260;-64
2023/08/13 04:25:57;;;;;;;4.30;3.90;;;;;;;35.27;57.32;100683.48;109276;1254;65026;-65
2023/08/13 04:28:26;;;;;;;4.60;3.90;;;;;;;35.76;53.26;100687.41;109281;1251;65625;-67
2023/08/13 04:30:53;;;;;;;4.70;3.80;;;;;;;36.16;49.24;100687.64;109269;1251;63822;-64
2023/08/13 04:33:21;;;;;;;5.30;4.10;;;;;;;36.46;46.22;100689.39;109275;1251;59041;-66
2023/08/13 04:35:53;;;;;;;4.70;4.10;;;;;;;36.66;44.27;100690.71;109259;1251;58274;-64
2023/08/13 04:38:21;;;;;;;4.50;3.90;;;;;;;36.91;42.86;100688.79;109292;1251;63779;-67
2023/08/13 04:40:49;;;;;;;4.40;3.80;;;;;;;37.12;39.91;100688.52;109258;1251;58626;-65
2023/08/13 04:43:17;;;;;;;5.00;3.40;;;;;;;37.12;37.93;100692.33;109245;1251;63848;-65
2023/08/13 04:45:46;;;;;;;3.90;3.50;;;;;;;37.09;37.67;100695.27;109251;1251;58222;-65
2023/08/13 04:48:18;;;;;;;6.30;3.90;;;;;;;36.84;37.49;100693.58;109199;1251;58318;-67
2023/08/13 04:50:47;;;;;;;4.40;3.80;;;;;;;36.79;38.42;100695.38;109272;1251;65009;-64
2023/08/13 04:53:15;;;;;;;4.10;3.40;;;;;;;36.94;37.50;100692.80;109245;1251;58258;-65
2023/08/13 04:55:43;;;;;;;5.70;3.60;;;;;;;37.08;36.30;100696.42;109267;1251;63900;-64
2023/08/13 04:58:11;;;;;;;4.50;3.50;;;;;;;37.20;35.93;100695.77;109210;1251;58620;-67
2023/08/13 05:00:38;;;;;;;4.20;3.60;;;;;;;37.43;35.43;100698.80;109196;1251;58212;-65
2023/08/13 05:03:06;;;;;;;8.40;3.70;;;;;;;37.45;34.16;100698.45;109233;1251;65173;-65
2023/08/13 05:05:34;;;;;;;3.60;3.00;;;;;;;37.30;34.62;100696.39;109368;1251;58339;-65
2023/08/13 05:08:01;;;;;;;4.60;3.40;;;;;;;37.48;34.28;100695.90;109332;1251;62706;-65
2023/08/13 05:10:29;;;;;;;4.00;3.30;;;;;;;37.80;33.85;100696.13;109188;1251;59400;-67
2023/08/13 05:12:57;;;;;;;6.50;3.70;;;;;;;38.18;33.28;100700.41;109217;1251;59793;-64
2023/08/13 05:15:25;;;;;;;6.20;3.90;;;;;;;38.48;33.03;100699.75;109245;1251;73849;-64
2023/08/13 05:17:53;;;;;;;3.90;3.50;;;;;;;38.76;32.17;100697.27;109284;1251;58660;-65
2023/08/13 05:20:20;;;;;;;4.10;3.50;;;;;;;38.86;31.35;100695.20;109392;1251;62519;-66
2023/08/13 05:22:48;;;;;;;5.70;4.30;;;;;;;38.93;31.64;100693.91;109233;1251;58171;-64
2023/08/13 05:25:16;;;;;;;6.30;4.40;;;;;;;39.20;31.26;100697.15;109302;1251;58245;-64
2023/08/13 05:27:43;;;;;;;4.40;4.00;;;;;;;39.37;30.40;100696.49;109274;1251;63725;-64
2023/08/13 05:30:12;;;;;;;4.50;3.80;;;;;;;39.48;30.02;100694.22;109252;1251;58760;-63
2023/08/13 05:32:40;;;;;;;5.30;4.00;;;;;;;39.65;29.65;100695.47;109261;1252;72607;-64
2023/08/13 05:35:08;;;;;;;4.00;3.20;;;;;;;39.74;29.26;100696.45;109244;1252;58240;-64
2023/08/13 05:37:36;;;;;;;4.40;4.00;;;;;;;39.76;29.25;100689.92;109331;1251;58203;-63
2023/08/13 05:40:04;;;;;;;5.30;4.10;;;;;;;39.74;29.71;100691.30;109268;1254;65029;-63
2023/08/13 05:42:32;;;;;;;4.00;3.60;;;;;;;39.73;29.50;100694.95;109234;1252;58304;-64
2023/08/13 05:45:00;;;;;;;4.10;3.70;;;;;;;39.75;29.59;100696.46;109333;1251;63845;-64
2023/08/13 05:47:28;;;;;;;4.50;4.10;;;;;;;39.60;29.40;100699.83;109226;1254;58523;-63
2023/08/13 05:49:55;;;;;;;5.80;3.60;;;;;;;39.53;29.74;100698.71;109371;1251;58239;-63
2023/08/13 05:52:24;;;;;;;4.60;4.00;;;;;;;39.69;30.10;100701.61;109199;1250;65340;-65
2023/08/13 05:54:51;;;;;;;4.60;4.20;;;;;;;39.80;29.99;100707.67;109308;1251;58681;-63
2023/08/13 05:57:19;;;;;;;3.80;3.50;;;;;;;39.78;28.95;100705.48;109347;1251;62515;-63
2023/08/13 05:59:47;;;;;;;4.50;3.80;;;;;;;39.83;29.04;100707.73;109279;1252;58610;-64
2023/08/13 06:02:14;;;;;;;4.50;3.80;;;;;;;39.95;29.19;100704.73;109281;1251;58644;-64
2023/08/13 06:04:42;;;;;;;5.90;4.20;;;;;;;39.89;28.84;100706.23;109272;1250;63763;-63
2023/08/13 06:07:10;;;;;;;4.40;3.80;;;;;;;39.69;29.61;100709.93;109367;1250;58606;-64
2023/08/13 06:09:38;;;;;;;4.40;4.00;;;;;;;39.63;29.81;100706.50;109305;1252;71811;-63
2023/08/13 06:12:06;;;;;;;4.90;4.40;;;;;;;39.64;29.85;100706.51;109287;1252;58601;-65
2023/08/13 06:14:34;;;;;;;4.10;3.70;;;;;;;39.39;29.90;100707.10;109301;1251;58042;-64
2023/08/13 06:17:01;;;;;;;5.30;4.60;;;;;;;39.06;30.71;100706.83;109333;1250;65036;-63
2023/08/13 06:19:42;;;;;;;4.70;4.10;;;;;;;38.99;30.78;100705.54;109344;1250;58179;-63
2023/08/13 06:22:10;;;;;;;4.70;4.20;;;;;;;39.11;31.19;100702.69;109257;1251;64001;-64
2023/08/13 06:24:39;;;;;;;4.50;4.10;;;;;;;39.33;31.41;100693.06;109297;1251;58145;-64
2023/08/13 06:27:06;;;;;;;5.40;4.40;;;;;;;39.62;30.85;100691.11;109321;1251;60085;-64
2023/08/13 06:29:34;;;;;;;6.10;4.10;;;;;;;39.76;30.62;100689.54;109342;1251;63734;-64
2023/08/13 06:32:02;;;;;;;4.60;4.10;;;;;;;39.83;30.32;100687.44;109269;1250;58217;-65
2023/08/13 06:34:29;;;;;;;5.80;4.10;;;;;;;39.92;30.18;100687.46;109386;1251;62517;-64
2023/08/13 06:36:57;;;;;;;4.70;3.60;;;;;;;39.94;29.49;100683.59;109329;1256;58507;-64
2023/08/13 06:39:24;;;;;;;6.40;4.10;;;;;;;39.89;28.53;100680.27;109374;1251;58593;-64
2023/08/13 06:41:52;;;;;;;4.10;3.70;;;;;;;39.72;28.66;100679.88;109290;1251;65018;-66
2023/08/13 06:44:25;;;;;;;5.40;4.20;;;;;;;39.59;28.70;100678.93;109305;1251;58287;-63
2023/08/13 06:46:53;;;;;;;5.00;4.50;;;;;;;39.57;29.22;100676.17;109312;1251;63768;-64
2023/08/13 06:49:20;;;;;;;4.30;3.40;;;;;;;39.62;29.11;100675.06;109371;1251;58173;-63
2023/08/13 06:51:48;;;;;;;4.60;3.40;;;;;;;39.67;28.36;100674.67;109382;1251;58504;-65
2023/08/13 06:54:15;;;;;;;5.10;3.90;;;;;;;39.74;27.84;100673.84;109336;1251;63790;-64
2023/08/13 06:56:43;;;;;;;4.00;3.60;;;;;;;39.71;28.03;100667.40;109316;1251;58854;-64
2023/08/13 06:59:10;;;;;;;4.20;3.30;;;;;;;39.84;28.26;100662.41;109303;1251;62500;-63
2023/08/13 07:01:38;;;;;;;4.20;3.80;;;;;;;40.16;27.73;100657.55;109322;1251;58185;-64
2023/08/13 07:04:06;;;;;;;5.10;4.10;;;;;;;40.54;26.97;100658.71;109266;1251;58087;-63
2023/08/13 07:06:34;;;;;;;4.20;3.40;;;;;;;40.80;26.36;100659.39;109315;1250;64983;-65
2023/08/13 07:09:03;;;;;;;3.80;3.40;;;;;;;40.96;26.60;100659.45;109346;1250;58626;-64
2023/08/13 07:11:36;;;;;;;4.30;3.70;;;;;;;41.06;26.37;100658.14;109357;1251;62481;-64
2023/08/13 07:14:03;;;;;;;3.80;3.30;;;;;;;41.03;25.84;100654.91;109325;1251;58568;-63
2023/08/13 07:16:31;;;;;;;3.60;3.10;;;;;;;40.88;25.45;100655.40;109323;1250;58217;-64
2023/08/13 07:18:59;;;;;;;4.30;3.50;;;;;;;40.63;25.32;100654.81;109336;1250;63711;-64
2023/08/13 07:21:27;;;;;;;3.80;3.40;;;;;;;40.44;25.64;100650.73;109296;1251;58641;-63
2023/08/13 07:23:55;;;;;;;3.00;2.70;;;;;;;40.45;25.70;100650.82;109276;1251;63889;-64
2023/08/13 07:26:22;;;;;;;3.50;2.70;;;;;;;40.55;24.77;100650.29;109285;1252;58181;-66
2023/08/13 07:28:50;;;;;;;4.20;3.00;;;;;;;40.58;24.77;100651.73;109330;1251;58588;-64
2023/08/13 07:31:19;;;;;;;3.70;2.70;;;;;;;40.64;24.38;100648.60;109330;1251;65016;-63
2023/08/13 07:33:47;;;;;;;3.80;2.90;;;;;;;40.70;24.57;100653.55;109274;1252;59355;-65
2023/08/13 07:36:15;;;;;;;3.60;3.20;;;;;;;40.74;24.68;100654.83;109265;1251;63905;-64
2023/08/13 07:38:43;;;;;;;4.00;3.40;;;;;;;40.86;25.10;100658.11;109365;1251;58270;-63
2023/08/13 07:41:11;;;;;;;4.70;2.70;;;;;;;40.97;24.61;100655.09;109336;1251;58626;-63
2023/08/13 07:43:38;;;;;;;4.30;3.20;;;;;;;40.86;24.88;100654.54;109365;1251;65025;-65
2023/08/13 07:46:06;;;;;;;3.90;3.30;;;;;;;40.76;24.99;100653.59;109276;1251;58711;-65
2023/08/13 07:48:33;;;;;;;3.30;3.00;;;;;;;40.80;24.67;100650.65;109322;1251;63963;-63
2023/08/13 07:51:01;;;;;;;4.80;3.20;;;;;;;40.80;24.53;100652.91;109325;1251;58229;-63
2023/08/13 07:53:29;;;;;;;3.40;2.60;;;;;;;40.89;24.48;100655.95;109327;1251;58208;-65
2023/08/13 07:55:57;;;;;;;3.20;2.90;;;;;;;40.90;23.78;100653.70;109245;1251;65358;-64
2023/08/13 07:58:25;;;;;;;2.70;2.50;;;;;;;40.62;24.49;100654.59;109333;1251;58335;-63
2023/08/13 08:00:53;;;;;;;3.30;3.00;;;;;;;40.58;25.40;100652.36;109341;1251;63888;-63
2023/08/13 08:03:22;;;;;;;3.90;3.20;;;;;;;40.69;25.63;100654.17;109235;1251;58324;-64
2023/08/13 08:05:51;;;;;;;;;;;;;;;40.86;25.21;100653.20;109249;1251;58315;-63
2023/08/13 08:08:19;;;;;;;3.00;2.60;;;;;;;40.95;24.84;100651.78;109327;1250;65051;-63
2023/08/13 08:10:47;;;;;;;3.60;3.20;;;;;;;40.87;24.84;100649.45;109351;1251;58482;-63
2023/08/13 08:13:14;;;;;;;3.70;2.80;;;;;;;40.82;24.75;100645.20;109329;1251;63851;-63
2023/08/13 08:15:42;;;;;;;3.70;2.90;;;;;;;40.77;25.05;100649.38;109216;1251;58221;-64
2023/08/13 08:18:09;;;;;;;4.20;3.40;;;;;;;40.76;24.76;100645.09;109357;1251;58121;-63
2023/08/13 08:20:37;;;;;;;4.60;3.10;;;;;;;40.70;24.84;100647.92;109364;1250;63643;-63
2023/08/13 08:23:05;;;;;;;4.70;2.90;;;;;;;40.64;24.20;100643.04;109328;1251;58181;-63
2023/08/13 08:25:32;;;;;;;4.30;3.10;;;;;;;40.44;24.90;100642.85;109260;1251;64019;-64
2023/08/13 08:28:00;;;;;;;3.20;2.90;;;;;;;40.42;24.63;100642.19;109332;1252;60756;-63
2023/08/13 08:30:27;;;;;;;3.40;2.80;;;;;;;40.43;24.73;100647.06;109348;1251;58155;-63
2023/08/13 08:32:55;;;;;;;3.00;2.70;;;;;;;40.35;24.76;100649.71;109449;1251;65178;-63
2023/08/13 08:35:23;;;;;;;3.30;2.80;;;;;;;40.22;25.26;100649.67;109330;1252;58533;-65
2023/08/13 08:37:51;;;;;;;4.00;3.00;;;;;;;40.12;25.47;100650.80;109258;1253;63871;-65
2023/08/13 08:40:18;;;;;;;4.30;2.80;;;;;;;39.98;25.74;100652.44;109324;1251;58249;-63
2023/08/13 08:42:46;;;;;;;3.90;2.50;;;;;;;39.84;26.18;100650.95;109360;1251;58693;-63
2023/08/13 08:45:14;;;;;;;3.50;2.60;;;;;;;39.76;26.21;100647.36;109345;1251;65015;-63
2023/08/13 08:47:41;;;;;;;4.60;3.00;;;;;;;39.76;26.27;100645.70;109080;1251;68378;-65
2023/08/13 08:50:11;;;;;;;4.40;2.60;;;;;;;39.76;25.95;100645.10;109170;1251;62514;-63
2023/08/13 08:52:39;;;;;;;4.20;2.70;;;;;;;39.54;26.65;100640.98;109340;1251;58578;-62
2023/08/13 08:55:11;;;;;;;3.80;2.80;;;;;;;39.35;27.37;100646.64;109312;1251;58161;-63
2023/08/13 08:57:39;;;;;;;3.40;2.60;;;;;;;39.30;26.70;100648.23;109283;1251;63712;-65
2023/08/13 09:00:08;;;;;;;3.90;2.80;;;;;;;39.16;26.93;100645.20;109323;1251;58698;-64
2023/08/13 09:02:39;;;;;;;2.90;2.30;;;;;;;39.20;27.10;100640.27;109325;1251;64069;-63
2023/08/13 09:05:07;;;;;;;4.10;2.60;;;;;;;39.35;27.40;100642.60;109298;1252;58510;-63
2023/08/13 09:07:35;;;;;;;3.70;2.60;;;;;;;39.39;26.41;100641.27;109310;1251;58249;-62
2023/08/13 09:10:03;;;;;;;3.80;2.50;;;;;;;39.25;26.37;100642.20;109283;1251;64999;-63
2023/08/13 09:12:37;;;;;;;3.90;2.40;;;;;;;39.12;26.62;100647.48;109391;1251;58675;-63
2023/08/13 09:15:09;;;;;;;4.70;2.20;;;;;;;39.13;26.42;100648.50;109296;1251;71448;-64
2023/08/13 09:17:37;;;;;;;2.90;2.40;;;;;;;39.12;26.36;100643.89;109133;1252;214650;-64
2023/08/13 09:20:18;;;;;;;3.20;2.20;;;;;;;39.21;26.25;100640.99;109379;1251;58250;-63
2023/08/13 09:22:47;;;;;;;3.10;2.20;;;;;;;39.24;25.53;100638.77;109351;1251;65101;-65
2023/08/13 09:25:15;;;;;;;3.50;2.60;;;;;;;39.17;25.08;100637.33;109357;1251;58657;-63
2023/08/13 09:27:42;;;;;;;3.40;2.40;;;;;;;39.12;24.62;100639.77;109322;1251;63828;-64
2023/08/13 09:30:12;;;;;;;3.10;2.50;;;;;;;39.13;25.14;100641.58;109282;1251;60259;-64
2023/08/13 09:32:41;;;;;;;4.00;2.50;;;;;;;39.26;25.55;100642.63;109318;1251;58621;-65
2023/08/13 09:35:09;;;;;;;3.80;2.50;;;;;;;39.29;24.84;100635.73;109350;1251;63680;-64
2023/08/13 09:37:37;;;;;;;4.10;2.90;;;;;;;39.12;25.61;100636.65;109370;1251;58396;-65
2023/08/13 09:40:06;;;;;;;4.30;2.60;;;;;;;39.10;26.78;100632.17;109290;1251;64211;-63
2023/08/13 09:42:33;;;;;;;3.00;2.50;;;;;;;39.19;27.03;100635.59;109309;1252;59242;-64
2023/08/13 09:45:12;;;;;;;2.80;2.20;;;;;;;39.21;26.96;100632.80;109308;1251;58521;-64
2023/08/13 09:47:41;;;;;;;3.10;2.60;;;;;;;39.01;27.01;100632.13;109324;1252;65057;-65
2023/08/13 09:50:09;;;;;;;3.00;2.30;;;;;;;38.93;26.69;100631.15;109334;1251;58469;-63
2023/08/13 09:52:36;;;;;;;3.20;2.70;;;;;;;39.04;25.98;100629.58;109292;1251;62511;-63
2023/08/13 09:55:12;;;;;;;3.90;2.80;;;;;;;39.07;25.90;100625.90;109122;1251;58450;-63
2023/08/13 09:57:41;;;;;;;4.30;2.70;;;;;;;38.93;26.83;100621.71;109338;1256;58208;-63
2023/08/13 10:00:09;;;;;;;3.60;2.50;;;;;;;38.86;27.13;100618.98;109319;1251;65032;-65
2023/08/13 10:02:40;;;;;;;2.90;2.40;;;;;;;38.89;26.94;100618.62;109342;1251;59252;-63
2023/08/13 10:05:08;;;;;;;3.00;2.50;;;;;;;38.85;26.39;100615.21;109308;1253;63838;-63
2023/08/13 10:07:36;;;;;;;2.60;2.10;;;;;;;38.73;26.22;100618.91;109326;1251;58728;-64
2023/08/13 10:10:04;;;;;;;4.20;2.30;;;;;;;38.66;25.94;100626.50;109360;1251;58191;-65
2023/08/13 10:12:35;;;;;;;3.10;2.50;;;;;;;38.56;26.04;100625.80;109371;1251;63758;-67
2023/08/13 10:15:03;;;;;;;2.70;2.30;;;;;;;38.47;26.38;100627.58;109370;1251;58231;-64
2023/08/13 10:17:31;;;;;;;3.30;2.80;;;;;;;38.37;26.81;100628.52;109282;1251;62530;-65
2023/08/13 10:19:58;;;;;;;3.50;2.80;;;;;;;38.41;27.15;100631.54;109366;1251;58409;-67
2023/08/13 10:22:36;;;;;;;3.50;2.70;;;;;;;38.52;26.96;100628.75;109328;1252;58157;-64
2023/08/13 10:25:06;;;;;;;3.20;2.50;;;;;;;38.70;25.93;100617.69;109366;1251;63708;-64
2023/08/13 10:27:35;;;;;;;3.00;2.40;;;;;;;38.79;25.87;100615.58;109325;1251;58654;-64
2023/08/13 10:30:10;;;;;;;3.60;2.80;;;;;;;38.88;26.33;100613.17;109283;1251;63834;-64
2023/08/13 10:32:56;;;;;;;2.90;2.40;;;;;;;38.97;26.79;100615.17;109336;1251;58192;-64
2023/08/13 10:35:37;;;;;;;3.40;2.60;;;;;;;38.99;26.81;100614.10;109345;1251;58270;-66
2023/08/13 10:38:06;;;;;;;4.20;2.50;;;;;;;38.91;26.99;100609.70;109350;1251;64991;-64
2023/08/13 10:40:36;;;;;;;5.50;3.00;;;;;;;38.87;26.99;100605.99;109344;1251;58189;-65
2023/08/13 10:43:04;;;;;;;3.40;2.70;;;;;;;38.89;26.98;100606.57;109289;1252;63887;-64
2023/08/13 10:45:35;;;;;;;3.40;2.70;;;;;;;38.92;26.76;100605.52;109288;1251;58171;-65
2023/08/13 10:48:07;;;;;;;3.80;2.30;;;;;;;38.88;26.98;100601.26;109361;1251;58686;-64
2023/08/13 10:50:43;;;;;;;3.40;2.60;;;;;;;38.84;26.83;100602.45;109278;1250;64953;-64
2023/08/13 10:53:26;;;;;;;4.30;2.90;;;;;;;38.83;26.80;100599.33;109303;1252;58403;-66
2023/08/13 10:55:54;;;;;;;3.40;2.20;;;;;;;38.83;26.55;100603.44;109298;1251;72710;-64
2023/08/13 10:58:26;;;;;;;4.10;2.40;;;;;;;38.84;26.29;100601.36;109339;1251;59246;-64
2023/08/13 11:01:20;;;;;;;4.70;2.50;;;;;;;38.85;26.47;100599.88;109318;1251;58780;-66
2023/08/13 11:03:52;;;;;;;2.90;2.30;;;;;;;38.83;26.63;100599.69;109346;1250;65013;-65
2023/08/13 11:06:20;;;;;;;4.00;2.40;;;;;;;38.89;26.38;100598.30;109340;1250;58694;-67
2023/08/13 11:08:48;;;;;;;3.40;2.40;;;;;;;38.75;26.12;100597.77;109316;1251;63475;-65
2023/08/13 11:11:16;;;;;;;3.80;2.20;;;;;;;38.49;27.36;100607.62;109356;1252;58343;-65
2023/08/13 11:13:44;;;;;;;5.90;3.10;;;;;;;38.42;27.35;100607.35;109376;1251;58223;-64
2023/08/13 11:16:13;;;;;;;4.50;2.50;;;;;;;38.33;27.01;100603.68;109363;1251;65473;-65
2023/08/13 11:18:40;;;;;;;3.50;2.30;;;;;;;38.27;27.47;100604.55;109290;1255;58703;-66
2023/08/13 11:21:08;;;;;;;3.10;2.30;;;;;;;38.35;27.70;100605.10;109425;1251;62459;-65
2023/08/13 11:23:36;;;;;;;3.00;2.20;;;;;;;38.47;27.22;100604.23;109389;1251;58620;-65